Time;durP1;ratioP1;P1;durP2;ratioP2;P2;SDS_P1;SDS_P2;PMS_P1;PMS_P2;Temp;Humidity;BMP_temperature;BMP_pressure;BME280_temperature;BME280_humidity;BME280_pressure;Samples;Min_cycle;Max_cycle;Signal;HPM_P1;HPM_P2
2023/02/12 00:00:28;;;;;;;13.68;6.68;;;;;;;;;;1038680;28;20534;-80
2023/02/12 00:00:58;;;;;;;20.98;9.15;;;;;;;;;;1038429;28;20053;-80
2023/02/12 00:01:29;;;;;;;14.95;7.07;;;;;;;;;;1040625;28;20018;-80
2023/02/12 00:02:00;;;;;;;20.98;9.40;;;;;;;;;;1042155;28;20413;-79
2023/02/12 00:02:30;;;;;;;14.65;6.55;;;;;;;;;;1037977;28;20033;-79
2023/02/12 00:03:00;;;;;;;22.23;8.38;;;;;;;;;;1038511;28;20116;-79
2023/02/12 00:03:31;;;;;;;14.63;7.80;;;;;;;;;;1038107;28;20028;-79
2023/02/12 00:04:02;;;;;;;13.13;5.85;;;;;;;;;;1037561;28;20030;-79
2023/02/12 00:04:32;;;;;;;16.42;8.40;;;;;;;;;;1036590;28;20088;-79
2023/02/12 00:05:03;;;;;;;14.25;7.53;;;;;;;;;;1037872;28;20112;-79
2023/02/12 00:05:36;;;;;;;16.80;10.70;;;;;;;;;;1039641;28;20607;-79
2023/02/12 00:06:07;;;;;;;17.25;9.40;;;;;;;;;;1037412;28;20022;-80
2023/02/12 00:06:39;;;;;;;20.90;8.98;;;;;;;;;;1041620;28;20549;-79
2023/02/12 00:07:10;;;;;;;12.70;6.55;;;;;;;;;;1043638;28;20056;-80
2023/02/12 00:07:40;;;;;;;15.40;8.05;;;;;;;;;;1041754;28;20033;-79
2023/02/12 00:08:10;;;;;;;17.33;8.18;;;;;;;;;;1041713;28;20500;-79
2023/02/12 00:08:41;;;;;;;24.40;9.02;;;;;;;;;;1041641;28;20017;-79
2023/02/12 00:09:11;;;;;;;25.60;8.25;;;;;;;;;;1041853;28;20456;-79
2023/02/12 00:09:42;;;;;;;18.92;6.10;;;;;;;;;;1037195;28;20046;-79
2023/02/12 00:10:13;;;;;;;21.92;10.15;;;;;;;;;;1039181;28;20022;-79
2023/02/12 00:10:43;;;;;;;11.35;8.18;;;;;;;;;;1036987;28;20140;-80
2023/02/12 00:11:15;;;;;;;28.48;8.20;;;;;;;;;;1036467;28;20040;-80
2023/02/12 00:11:45;;;;;;;18.33;8.82;;;;;;;;;;1036969;28;20112;-79
2023/02/12 00:12:16;;;;;;;22.27;9.38;;;;;;;;;;1042883;28;20017;-80
2023/02/12 00:12:47;;;;;;;23.05;8.98;;;;;;;;;;1039387;28;20060;-80
2023/02/12 00:13:17;;;;;;;13.02;7.63;;;;;;;;;;1035959;28;20089;-80
2023/02/12 00:13:48;;;;;;;28.85;11.40;;;;;;;;;;1038182;28;20013;-79
2023/02/12 00:14:19;;;;;;;15.10;8.82;;;;;;;;;;1036996;28;20112;-80
2023/02/12 00:14:49;;;;;;;12.70;7.55;;;;;;;;;;1037710;28;20024;-79
2023/02/12 00:15:20;;;;;;;24.58;9.93;;;;;;;;;;1041571;28;20028;-79
2023/02/12 00:15:51;;;;;;;13.93;9.20;;;;;;;;;;1040504;28;20484;-78
2023/02/12 00:16:22;;;;;;;16.67;7.70;;;;;;;;;;1038868;28;20428;-78
2023/02/12 00:16:53;;;;;;;23.58;9.95;;;;;;;;;;1037708;28;20084;-78
2023/02/12 00:17:23;;;;;;;20.90;8.90;;;;;;;;;;1037595;28;20017;-78
2023/02/12 00:17:54;;;;;;;12.40;7.15;;;;;;;;;;1038051;28;20530;-78
2023/02/12 00:18:24;;;;;;;24.35;10.63;;;;;;;;;;1037083;28;20025;-78
2023/02/12 00:18:55;;;;;;;24.38;9.75;;;;;;;;;;1041030;28;20028;-78
2023/02/12 00:19:26;;;;;;;22.10;9.68;;;;;;;;;;1042282;28;20032;-79
2023/02/12 00:19:56;;;;;;;29.67;7.32;;;;;;;;;;1043277;28;20020;-79
2023/02/12 00:20:27;;;;;;;14.80;8.38;;;;;;;;;;1040273;28;20021;-79
2023/02/12 00:20:58;;;;;;;17.00;8.07;;;;;;;;;;1038079;28;20492;-79
2023/02/12 00:21:28;;;;;;;15.32;8.38;;;;;;;;;;1037313;28;20026;-78
2023/02/12 00:21:59;;;;;;;31.42;9.85;;;;;;;;;;1038316;28;20492;-78
2023/02/12 00:22:29;;;;;;;18.45;7.53;;;;;;;;;;1037675;28;20167;-79
2023/02/12 00:23:00;;;;;;;15.35;9.35;;;;;;;;;;1036320;28;20022;-78
2023/02/12 00:23:31;;;;;;;17.58;7.35;;;;;;;;;;1038166;28;20025;-78
2023/02/12 00:24:02;;;;;;;15.32;7.95;;;;;;;;;;1038104;28;20068;-78
2023/02/12 00:24:32;;;;;;;16.52;8.50;;;;;;;;;;1036242;28;20052;-79
2023/02/12 00:25:03;;;;;;;17.20;8.73;;;;;;;;;;1037302;28;20053;-79
2023/02/12 00:25:33;;;;;;;15.52;8.18;;;;;;;;;;1036871;28;20049;-79
2023/02/12 00:26:05;;;;;;;19.73;10.25;;;;;;;;;;1038404;28;20026;-79
2023/02/12 00:26:35;;;;;;;23.83;6.75;;;;;;;;;;1042657;28;20032;-79
2023/02/12 00:27:06;;;;;;;8.77;5.60;;;;;;;;;;1041355;28;20022;-79
2023/02/12 00:27:36;;;;;;;19.25;7.43;;;;;;;;;;1041866;28;20554;-78
2023/02/12 00:28:07;;;;;;;16.55;6.65;;;;;;;;;;1042828;28;20440;-78
2023/02/12 00:28:37;;;;;;;17.77;7.50;;;;;;;;;;1041483;28;20018;-78
2023/02/12 00:29:08;;;;;;;23.30;8.25;;;;;;;;;;1041400;28;20112;-78
2023/02/12 00:29:39;;;;;;;16.08;7.03;;;;;;;;;;1037750;28;20492;-78
2023/02/12 00:30:10;;;;;;;24.05;7.93;;;;;;;;;;1037463;28;20057;-79
2023/02/12 00:30:40;;;;;;;11.13;7.15;;;;;;;;;;1037775;28;20428;-78
2023/02/12 00:31:18;;;;;;;15.20;8.93;;;;;;;;;;1036776;28;20477;-79
2023/02/12 00:31:49;;;;;;;8.00;5.53;;;;;;;;;;1037751;28;20560;-78
2023/02/12 00:32:19;;;;;;;14.07;8.13;;;;;;;;;;1037201;28;20038;-78
2023/02/12 00:32:50;;;;;;;18.60;7.22;;;;;;;;;;1038413;28;20027;-78
2023/02/12 00:33:20;;;;;;;19.25;7.00;;;;;;;;;;1039461;28;20017;-78
2023/02/12 00:33:51;;;;;;;19.60;8.60;;;;;;;;;;1038419;28;20021;-78
2023/02/12 00:34:21;;;;;;;13.32;6.55;;;;;;;;;;1039181;28;20444;-78
2023/02/12 00:34:52;;;;;;;31.48;9.23;;;;;;;;;;1039522;28;20515;-78
2023/02/12 00:35:22;;;;;;;15.05;7.75;;;;;;;;;;1038519;28;20445;-78
2023/02/12 00:35:56;;;;;;;24.50;11.13;;;;;;;;;;1042289;28;20028;-78
2023/02/12 00:36:27;;;;;;;17.20;6.85;;;;;;;;;;1042591;28;20017;-78
2023/02/12 00:36:58;;;;;;;18.85;8.82;;;;;;;;;;1042429;28;20020;-78
2023/02/12 00:37:28;;;;;;;23.48;8.40;;;;;;;;;;1041719;28;20575;-78
2023/02/12 00:37:59;;;;;;;12.50;7.63;;;;;;;;;;1042511;28;20033;-78
2023/02/12 00:38:29;;;;;;;24.10;7.30;;;;;;;;;;1041310;28;20040;-78
2023/02/12 00:39:00;;;;;;;13.65;7.30;;;;;;;;;;1038626;28;20380;-78
2023/02/12 00:39:31;;;;;;;27.40;11.15;;;;;;;;;;1039233;28;20032;-78
2023/02/12 00:40:01;;;;;;;17.50;7.35;;;;;;;;;;1039819;28;20026;-78
2023/02/12 00:40:32;;;;;;;17.00;9.38;;;;;;;;;;1036618;28;20025;-78
2023/02/12 00:41:02;;;;;;;16.48;7.00;;;;;;;;;;1037685;28;20018;-78
2023/02/12 00:41:33;;;;;;;21.83;7.45;;;;;;;;;;1038503;28;20029;-78
2023/02/12 00:42:03;;;;;;;23.85;8.57;;;;;;;;;;1039708;28;20025;-78
2023/02/12 00:42:34;;;;;;;24.23;14.73;;;;;;;;;;1043182;28;20076;-78
2023/02/12 00:43:04;;;;;;;35.28;14.25;;;;;;;;;;1039492;28;20030;-78
2023/02/12 00:43:35;;;;;;;32.03;14.75;;;;;;;;;;1041102;28;20025;-78
2023/02/12 00:44:05;;;;;;;27.17;14.10;;;;;;;;;;1037892;28;20018;-78
2023/02/12 00:44:36;;;;;;;25.10;11.05;;;;;;;;;;1037507;28;20026;-78
2023/02/12 00:45:07;;;;;;;18.58;10.52;;;;;;;;;;1039094;28;20048;-78
2023/02/12 00:45:37;;;;;;;33.47;11.93;;;;;;;;;;1038056;28;20026;-78
2023/02/12 00:46:08;;;;;;;34.30;11.07;;;;;;;;;;1038139;28;20052;-78
2023/02/12 00:46:38;;;;;;;18.85;11.18;;;;;;;;;;1036924;28;20077;-78
2023/02/12 00:47:09;;;;;;;24.85;9.40;;;;;;;;;;1040034;28;20092;-78
2023/02/12 00:47:39;;;;;;;20.70;10.35;;;;;;;;;;1038100;28;20478;-78
2023/02/12 00:48:09;;;;;;;24.20;12.40;;;;;;;;;;1038219;28;20194;-78
2023/02/12 00:48:40;;;;;;;22.23;8.15;;;;;;;;;;1042648;28;20020;-78
2023/02/12 00:49:11;;;;;;;28.20;11.57;;;;;;;;;;1041885;28;20028;-78
2023/02/12 00:49:41;;;;;;;23.00;10.30;;;;;;;;;;1043583;28;20016;-78
2023/02/12 00:50:12;;;;;;;22.25;10.02;;;;;;;;;;1037775;28;20073;-78
2023/02/12 00:50:45;;;;;;;25.83;11.73;;;;;;;;;;1038591;28;20401;-78
2023/02/12 00:51:16;;;;;;;26.92;10.38;;;;;;;;;;1037763;28;20035;-78
2023/02/12 00:51:46;;;;;;;16.20;9.27;;;;;;;;;;1038007;28;20064;-78
2023/02/12 00:52:16;;;;;;;22.90;11.48;;;;;;;;;;1038053;28;20057;-78
2023/02/12 00:52:47;;;;;;;23.05;13.23;;;;;;;;;;1038213;28;20026;-78
2023/02/12 00:53:18;;;;;;;27.17;11.02;;;;;;;;;;1038416;28;20064;-78
2023/02/12 00:53:48;;;;;;;21.15;12.23;;;;;;;;;;1040141;28;20091;-78
2023/02/12 00:54:19;;;;;;;34.47;13.45;;;;;;;;;;1038253;28;20050;-78
2023/02/12 00:54:49;;;;;;;30.55;13.43;;;;;;;;;;1037663;28;20022;-78
2023/02/12 00:55:20;;;;;;;29.08;13.13;;;;;;;;;;1037448;28;20569;-78
2023/02/12 00:55:50;;;;;;;32.55;11.65;;;;;;;;;;1037774;28;20586;-78
2023/02/12 00:56:21;;;;;;;47.97;9.65;;;;;;;;;;1043965;28;20470;-78
2023/02/12 00:56:51;;;;;;;25.92;11.68;;;;;;;;;;1042329;28;20542;-78
2023/02/12 00:57:22;;;;;;;42.85;12.50;;;;;;;;;;1041002;28;20026;-78
2023/02/12 00:57:52;;;;;;;25.00;10.55;;;;;;;;;;1039747;28;20025;-78
2023/02/12 00:58:23;;;;;;;24.40;10.90;;;;;;;;;;1038643;28;20029;-78
2023/02/12 00:58:53;;;;;;;24.63;11.32;;;;;;;;;;1042341;28;20203;-78
2023/02/12 00:59:24;;;;;;;24.85;12.38;;;;;;;;;;1042128;28;20020;-78
2023/02/12 00:59:55;;;;;;;30.58;12.10;;;;;;;;;;1044178;28;20025;-78
2023/02/12 01:00:25;;;;;;;26.63;12.18;;;;;;;;;;1042614;28;20053;-78
2023/02/12 01:00:56;;;;;;;35.88;13.00;;;;;;;;;;1038105;28;20041;-78
2023/02/12 01:01:26;;;;;;;36.42;13.63;;;;;;;;;;1034243;28;20018;-78
2023/02/12 01:01:57;;;;;;;40.35;14.63;;;;;;;;;;1032307;28;20195;-78
2023/02/12 01:02:27;;;;;;;18.08;11.98;;;;;;;;;;1033434;28;20018;-78
2023/02/12 01:02:58;;;;;;;27.73;13.77;;;;;;;;;;1038923;28;20485;-78
2023/02/12 01:03:28;;;;;;;22.42;11.63;;;;;;;;;;1037803;28;20255;-78
2023/02/12 01:03:59;;;;;;;54.28;11.82;;;;;;;;;;1039437;28;20358;-78
2023/02/12 01:04:29;;;;;;;25.60;13.25;;;;;;;;;;1038434;28;20048;-78
2023/02/12 01:05:00;;;;;;;28.42;14.45;;;;;;;;;;1038685;28;20047;-78
2023/02/12 01:05:31;;;;;;;22.20;10.07;;;;;;;;;;1038343;28;20029;-79
2023/02/12 01:06:02;;;;;;;23.27;11.82;;;;;;;;;;1036550;28;20018;-78
2023/02/12 01:06:32;;;;;;;31.85;13.50;;;;;;;;;;1037429;28;20040;-78
2023/02/12 01:07:03;;;;;;;26.75;13.07;;;;;;;;;;1038142;28;20072;-78
2023/02/12 01:07:33;;;;;;;40.78;15.25;;;;;;;;;;1039647;28;20029;-78
2023/02/12 01:08:04;;;;;;;33.92;13.10;;;;;;;;;;1038769;28;20026;-78
2023/02/12 01:08:34;;;;;;;33.65;10.75;;;;;;;;;;1037058;28;20025;-78
2023/02/12 01:09:05;;;;;;;35.50;14.45;;;;;;;;;;1039509;28;20472;-78
2023/02/12 01:09:35;;;;;;;25.70;14.63;;;;;;;;;;1038199;28;20022;-78
2023/02/12 01:10:06;;;;;;;33.00;13.68;;;;;;;;;;1038347;28;20029;-78
2023/02/12 01:10:37;;;;;;;31.10;14.05;;;;;;;;;;1039367;28;20029;-79
2023/02/12 01:11:07;;;;;;;26.60;10.48;;;;;;;;;;1038848;28;20022;-78
2023/02/12 01:11:38;;;;;;;32.15;14.88;;;;;;;;;;1038856;28;20017;-78
2023/02/12 01:12:08;;;;;;;24.35;8.82;;;;;;;;;;1037324;28;20080;-78
2023/02/12 01:12:39;;;;;;;16.02;9.07;;;;;;;;;;1038244;28;20025;-78
2023/02/12 01:13:11;;;;;;;33.15;10.40;;;;;;;;;;1038624;28;20787;-78
2023/02/12 01:13:41;;;;;;;22.13;11.02;;;;;;;;;;1036693;28;20120;-78
2023/02/12 01:14:12;;;;;;;34.65;11.63;;;;;;;;;;1034849;28;20021;-78
2023/02/12 01:14:42;;;;;;;28.23;14.18;;;;;;;;;;1033305;28;20032;-78
2023/02/12 01:15:13;;;;;;;22.58;9.65;;;;;;;;;;1034293;28;20105;-78
2023/02/12 01:15:43;;;;;;;27.35;11.13;;;;;;;;;;1034113;28;20018;-78
2023/02/12 01:16:16;;;;;;;26.33;11.50;;;;;;;;;;1038013;28;20114;-78
2023/02/12 01:16:46;;;;;;;40.03;12.63;;;;;;;;;;1038127;28;20117;-78
2023/02/12 01:17:16;;;;;;;23.67;11.48;;;;;;;;;;1038150;28;20036;-78
2023/02/12 01:17:47;;;;;;;38.55;14.82;;;;;;;;;;1042751;28;20061;-78
2023/02/12 01:18:18;;;;;;;47.67;20.15;;;;;;;;;;1042180;28;20028;-78
2023/02/12 01:18:49;;;;;;;36.33;18.08;;;;;;;;;;1042228;28;20472;-78
2023/02/12 01:19:19;;;;;;;35.30;14.50;;;;;;;;;;1038178;28;20574;-78
2023/02/12 01:19:50;;;;;;;27.73;16.30;;;;;;;;;;1039027;28;20057;-78
2023/02/12 01:20:22;;;;;;;50.53;18.00;;;;;;;;;;1039737;28;20053;-78
2023/02/12 01:20:52;;;;;;;40.67;17.35;;;;;;;;;;1038543;28;20388;-78
2023/02/12 01:21:24;;;;;;;50.15;21.05;;;;;;;;;;1042120;28;20029;-78
2023/02/12 01:21:55;;;;;;;35.05;15.43;;;;;;;;;;1037932;28;20034;-78
2023/02/12 01:22:25;;;;;;;25.38;14.07;;;;;;;;;;1038460;28;20495;-78
2023/02/12 01:22:56;;;;;;;35.22;16.40;;;;;;;;;;1038040;28;20080;-78
2023/02/12 01:23:26;;;;;;;21.95;12.13;;;;;;;;;;1037959;28;20045;-78
2023/02/12 01:23:57;;;;;;;25.70;14.52;;;;;;;;;;1037947;28;20025;-78
2023/02/12 01:24:27;;;;;;;28.35;13.57;;;;;;;;;;1035086;28;20044;-78
2023/02/12 01:24:58;;;;;;;39.13;17.85;;;;;;;;;;1039088;28;20382;-78
2023/02/12 01:25:28;;;;;;;43.30;19.23;;;;;;;;;;1039413;28;20358;-78
2023/02/12 01:25:59;;;;;;;36.47;15.90;;;;;;;;;;1038968;28;20037;-78
2023/02/12 01:26:29;;;;;;;39.15;13.85;;;;;;;;;;1037947;28;20045;-78
2023/02/12 01:27:00;;;;;;;43.42;15.10;;;;;;;;;;1038944;28;20037;-78
2023/02/12 01:27:30;;;;;;;30.25;12.95;;;;;;;;;;1038117;28;20018;-78
2023/02/12 01:28:01;;;;;;;31.85;13.27;;;;;;;;;;1038446;28;20038;-78
2023/02/12 01:28:32;;;;;;;30.20;13.50;;;;;;;;;;1038420;28;20022;-78
2023/02/12 01:29:04;;;;;;;36.17;15.38;;;;;;;;;;1042600;28;20364;-78
2023/02/12 01:29:34;;;;;;;30.13;18.23;;;;;;;;;;1043695;28;20029;-78
2023/02/12 01:30:06;;;;;;;37.65;16.60;;;;;;;;;;1042538;28;20488;-78
2023/02/12 01:30:37;;;;;;;30.95;13.60;;;;;;;;;;1037567;28;20028;-78
2023/02/12 01:31:12;;;;;;;33.33;13.13;;;;;;;;;;1038628;28;20028;-77
2023/02/12 01:31:43;;;;;;;22.60;11.20;;;;;;;;;;1035409;28;20049;-78
2023/02/12 01:32:13;;;;;;;29.20;12.63;;;;;;;;;;1034343;28;20026;-78
2023/02/12 01:32:44;;;;;;;28.42;12.63;;;;;;;;;;1038217;28;20068;-78
2023/02/12 01:33:14;;;;;;;29.55;14.65;;;;;;;;;;1038047;28;20022;-78
2023/02/12 01:33:49;;;;;;;26.40;10.15;;;;;;;;;;1039059;28;20029;-78
2023/02/12 01:34:20;;;;;;;29.17;11.80;;;;;;;;;;1038093;28;20095;-78
2023/02/12 01:34:50;;;;;;;26.05;11.38;;;;;;;;;;1038200;28;20021;-78
2023/02/12 01:35:21;;;;;;;27.00;12.85;;;;;;;;;;1039929;28;20061;-78
2023/02/12 01:35:51;;;;;;;26.98;13.10;;;;;;;;;;1042536;28;20028;-77
2023/02/12 01:36:22;;;;;;;27.38;14.48;;;;;;;;;;1042407;28;20067;-78
2023/02/12 01:36:52;;;;;;;37.75;15.65;;;;;;;;;;1041679;28;20060;-78
2023/02/12 01:37:23;;;;;;;29.25;14.30;;;;;;;;;;1038985;28;20116;-78
2023/02/12 01:37:53;;;;;;;33.22;14.85;;;;;;;;;;1037285;28;20422;-78
2023/02/12 01:38:24;;;;;;;42.53;14.10;;;;;;;;;;1038934;28;20029;-78
2023/02/12 01:38:54;;;;;;;29.05;13.77;;;;;;;;;;1038401;28;20485;-78
2023/02/12 01:39:25;;;;;;;22.38;12.77;;;;;;;;;;1037814;28;20022;-78
2023/02/12 01:39:55;;;;;;;36.53;15.80;;;;;;;;;;1038282;28;20026;-78
2023/02/12 01:40:25;;;;;;;24.30;12.50;;;;;;;;;;1039758;28;20052;-78
2023/02/12 01:41:06;;;;;;;23.55;11.18;;;;;;;;;;1038497;28;20024;-78
2023/02/12 01:41:39;;;;;;;21.25;12.98;;;;;;;;;;1038155;28;20425;-78
2023/02/12 01:42:13;;;;;;;31.70;12.52;;;;;;;;;;1037730;28;20029;-78
2023/02/12 01:42:44;;;;;;;34.15;16.90;;;;;;;;;;1037777;28;20116;-78
2023/02/12 01:43:14;;;;;;;33.63;13.10;;;;;;;;;;1038859;28;20087;-78
2023/02/12 01:43:45;;;;;;;29.00;12.30;;;;;;;;;;1041850;28;20416;-77
2023/02/12 01:44:18;;;;;;;40.00;18.50;;;;;;;;;;1037748;28;20047;-78
2023/02/12 01:45:06;;;;;;;33.53;16.73;;;;;;;;;;1038965;28;20021;-79
2023/02/12 01:45:44;;;;;;;32.58;18.40;;;;;;;;;;1036763;28;20033;-78
2023/02/12 01:46:14;;;;;;;40.78;16.02;;;;;;;;;;1037900;28;20022;-78
2023/02/12 01:46:46;;;;;;;36.85;18.30;;;;;;;;;;1042049;28;20033;-79
2023/02/12 01:47:17;;;;;;;27.50;16.58;;;;;;;;;;1038096;28;20107;-78
2023/02/12 01:47:47;;;;;;;33.65;15.60;;;;;;;;;;1037866;28;20073;-78
2023/02/12 01:48:18;;;;;;;22.73;13.05;;;;;;;;;;1034811;28;20026;-78
2023/02/12 01:48:49;;;;;;;46.15;18.30;;;;;;;;;;1038430;28;20018;-78
2023/02/12 01:49:21;;;;;;;45.20;18.73;;;;;;;;;;1043558;28;20021;-78
2023/02/12 01:49:52;;;;;;;19.13;10.20;;;;;;;;;;1043510;28;20484;-79
2023/02/12 01:50:23;;;;;;;9.07;6.35;;;;;;;;;;1040928;28;20080;-79
2023/02/12 01:50:54;;;;;;;36.35;17.98;;;;;;;;;;1038391;28;20033;-78
2023/02/12 01:51:26;;;;;;;37.58;16.30;;;;;;;;;;1040322;28;20032;-78
2023/02/12 01:51:59;;;;;;;35.88;15.25;;;;;;;;;;1036152;28;20034;-78
2023/02/12 01:52:31;;;;;;;28.48;16.45;;;;;;;;;;1036485;28;20049;-78
2023/02/12 01:53:02;;;;;;;46.13;14.07;;;;;;;;;;1039952;28;20516;-78
2023/02/12 01:53:35;;;;;;;29.20;16.77;;;;;;;;;;1040561;28;20029;-78
2023/02/12 01:54:07;;;;;;;35.67;17.38;;;;;;;;;;1041978;28;20053;-78
2023/02/12 01:54:37;;;;;;;41.42;17.98;;;;;;;;;;1037327;28;20029;-78
2023/02/12 01:55:09;;;;;;;35.30;19.25;;;;;;;;;;1038141;28;20022;-78
2023/02/12 01:55:41;;;;;;;37.70;17.05;;;;;;;;;;1037387;28;20477;-81
2023/02/12 01:56:12;;;;;;;29.65;16.95;;;;;;;;;;1038531;28;20057;-78
2023/02/12 01:56:42;;;;;;;43.03;18.08;;;;;;;;;;1038252;28;20029;-78
2023/02/12 01:57:14;;;;;;;23.70;15.90;;;;;;;;;;1038454;28;20067;-78
2023/02/12 01:57:46;;;;;;;22.35;13.00;;;;;;;;;;1041964;28;20119;-78
2023/02/12 01:58:17;;;;;;;24.42;12.48;;;;;;;;;;1037656;28;20131;-78
2023/02/12 01:58:50;;;;;;;30.92;13.98;;;;;;;;;;1038863;28;20021;-78
2023/02/12 01:59:20;;;;;;;27.10;17.95;;;;;;;;;;1037589;28;20029;-78
2023/02/12 01:59:52;;;;;;;31.55;15.63;;;;;;;;;;1037003;28;20026;-78
2023/02/12 02:00:24;;;;;;;30.05;15.10;;;;;;;;;;1039608;28;20443;-78
2023/02/12 02:00:54;;;;;;;35.20;14.18;;;;;;;;;;1042781;28;20021;-78
2023/02/12 02:01:26;;;;;;;27.42;13.73;;;;;;;;;;1041935;28;20552;-78
2023/02/12 02:01:56;;;;;;;33.00;15.52;;;;;;;;;;1039355;28;20556;-78
2023/02/12 02:02:27;;;;;;;35.60;14.77;;;;;;;;;;1037884;28;20022;-78
2023/02/12 02:02:59;;;;;;;35.35;15.75;;;;;;;;;;1038067;28;20093;-78
2023/02/12 02:03:29;;;;;;;21.38;12.27;;;;;;;;;;1037865;28;20033;-79
2023/02/12 02:04:03;;;;;;;30.65;13.15;;;;;;;;;;1038471;28;20503;-79
2023/02/12 02:04:39;;;;;;;36.65;14.93;;;;;;;;;;1037592;28;20049;-79
2023/02/12 02:05:11;;;;;;;25.30;13.90;;;;;;;;;;1039878;28;20021;-79
2023/02/12 02:05:44;;;;;;;36.53;14.23;;;;;;;;;;1038384;28;20034;-79
2023/02/12 02:06:28;;;;;;;18.20;12.55;;;;;;;;;;1039168;28;20029;-79
2023/02/12 02:07:00;;;;;;;32.67;11.02;;;;;;;;;;1038755;28;20020;-79
2023/02/12 02:07:31;;;;;;;22.77;12.38;;;;;;;;;;1033138;28;20108;-78
2023/02/12 02:08:02;;;;;;;19.52;10.07;;;;;;;;;;1036080;28;20525;-78
2023/02/12 02:08:33;;;;;;;22.63;13.40;;;;;;;;;;1037996;28;20029;-78
2023/02/12 02:09:03;;;;;;;32.65;12.65;;;;;;;;;;1039581;28;20052;-78
2023/02/12 02:09:35;;;;;;;20.67;10.88;;;;;;;;;;1038619;28;20072;-78
2023/02/12 02:10:06;;;;;;;22.65;14.18;;;;;;;;;;1038825;28;20033;-79
2023/02/12 02:10:37;;;;;;;24.80;10.43;;;;;;;;;;1037881;28;20587;-78
2023/02/12 02:14:32;;;;;;;14.15;10.10;;;;;;;;;;1038094;28;20082;-80
2023/02/12 02:15:03;;;;;;;28.63;8.65;;;;;;;;;;1038190;28;20026;-79
2023/02/12 02:15:35;;;;;;;14.02;9.88;;;;;;;;;;1036823;28;20497;-79
2023/02/12 02:16:12;;;;;;;35.20;10.05;;;;;;;;;;1039040;28;20032;-79
2023/02/12 02:16:45;;;;;;;28.38;11.63;;;;;;;;;;1038371;28;20028;-78
2023/02/12 02:17:16;;;;;;;17.77;9.02;;;;;;;;;;1042147;28;20067;-79
2023/02/12 02:17:55;;;;;;;23.65;11.68;;;;;;;;;;1038076;28;20054;-78
2023/02/12 02:18:32;;;;;;;30.42;8.93;;;;;;;;;;1037625;28;20032;-79
2023/02/12 02:19:11;;;;;;;15.90;7.32;;;;;;;;;;1037932;28;20112;-78
2023/02/12 02:19:44;;;;;;;24.55;10.75;;;;;;;;;;1038577;28;20026;-79
2023/02/12 02:20:30;;;;;;;19.10;11.55;;;;;;;;;;1037893;28;20025;-79
2023/02/12 02:21:12;;;;;;;16.02;8.82;;;;;;;;;;1038524;28;20033;-79
2023/02/12 02:22:02;;;;;;;15.50;7.18;;;;;;;;;;1037966;28;20052;-79
2023/02/12 02:22:37;;;;;;;13.68;7.90;;;;;;;;;;1037047;28;20519;-79
2023/02/12 02:23:22;;;;;;;12.75;7.65;;;;;;;;;;1038671;28;20026;-78
2023/02/12 02:24:11;;;;;;;18.05;5.85;;;;;;;;;;1037698;28;20014;-78
2023/02/12 02:24:51;;;;;;;28.65;9.25;;;;;;;;;;1039873;28;20017;-78
2023/02/12 02:25:44;;;;;;;12.60;8.23;;;;;;;;;;1040845;28;20033;-78
2023/02/12 02:26:21;;;;;;;14.82;9.70;;;;;;;;;;1040286;28;20051;-79
2023/02/12 02:27:13;;;;;;;14.27;10.20;;;;;;;;;;1037333;28;20034;-78
2023/02/12 02:28:00;;;;;;;10.18;6.55;;;;;;;;;;1037154;28;20022;-78
2023/02/12 02:28:36;;;;;;;21.73;7.25;;;;;;;;;;1038923;28;20506;-78
2023/02/12 02:29:07;;;;;;;20.80;9.93;;;;;;;;;;1040006;28;20032;-78
2023/02/12 02:30:01;;;;;;;14.35;8.57;;;;;;;;;;1035710;28;20022;-78
2023/02/12 02:30:33;;;;;;;11.00;7.15;;;;;;;;;;1027709;28;20027;-79
2023/02/12 02:31:11;;;;;;;15.98;9.07;;;;;;;;;;1034128;28;20080;-79
2023/02/12 02:31:41;;;;;;;15.90;9.63;;;;;;;;;;1033292;28;20029;-79
2023/02/12 02:32:21;;;;;;;14.70;8.23;;;;;;;;;;1035930;28;20113;-79
2023/02/12 02:32:57;;;;;;;15.23;8.15;;;;;;;;;;1037782;28;20382;-79
2023/02/12 02:33:41;;;;;;;13.38;8.13;;;;;;;;;;1039213;28;20030;-79
2023/02/12 02:34:20;;;;;;;18.00;10.27;;;;;;;;;;1039887;28;20040;-79
2023/02/12 02:35:08;;;;;;;16.52;10.25;;;;;;;;;;1039013;28;20501;-79
2023/02/12 02:35:51;;;;;;;14.10;7.50;;;;;;;;;;1038075;28;20021;-79
2023/02/12 02:36:27;;;;;;;16.88;8.35;;;;;;;;;;1036194;28;20026;-79
2023/02/12 02:37:01;;;;;;;14.55;6.63;;;;;;;;;;1041952;28;20017;-79
2023/02/12 02:37:35;;;;;;;13.60;7.45;;;;;;;;;;1039582;28;20033;-78
2023/02/12 02:38:11;;;;;;;15.10;6.88;;;;;;;;;;1037772;28;20046;-79
2023/02/12 02:38:41;;;;;;;10.68;8.25;;;;;;;;;;1037654;28;20032;-79
2023/02/12 02:39:12;;;;;;;14.18;7.78;;;;;;;;;;1034655;28;20585;-79
2023/02/12 02:39:47;;;;;;;11.77;7.90;;;;;;;;;;1039133;28;20076;-79
2023/02/12 02:40:32;;;;;;;19.23;9.23;;;;;;;;;;1041463;28;20018;-79
2023/02/12 02:41:10;;;;;;;32.65;8.00;;;;;;;;;;1042266;28;20433;-79
2023/02/12 02:41:49;;;;;;;12.60;7.38;;;;;;;;;;1041853;28;20040;-79
2023/02/12 02:42:33;;;;;;;11.13;7.60;;;;;;;;;;1043335;28;20508;-79
2023/02/12 02:43:06;;;;;;;16.13;7.45;;;;;;;;;;1033361;28;20026;-79
2023/02/12 02:43:39;;;;;;;21.08;10.43;;;;;;;;;;1031352;28;20018;-79
2023/02/12 02:44:13;;;;;;;18.73;8.50;;;;;;;;;;1034311;28;20034;-79
2023/02/12 02:45:03;;;;;;;10.88;5.75;;;;;;;;;;1035997;28;20056;-79
2023/02/12 02:45:41;;;;;;;15.13;7.68;;;;;;;;;;1024665;28;20126;-79
2023/02/12 02:46:28;;;;;;;27.15;9.07;;;;;;;;;;1041921;28;20049;-79
2023/02/12 02:47:01;;;;;;;17.15;7.72;;;;;;;;;;1038242;28;20409;-79
2023/02/12 02:47:38;;;;;;;20.10;6.80;;;;;;;;;;1036757;28;20125;-79
2023/02/12 02:48:13;;;;;;;15.85;7.15;;;;;;;;;;1038292;28;20023;-79
2023/02/12 02:48:48;;;;;;;17.63;7.95;;;;;;;;;;1040035;28;20045;-79
2023/02/12 02:49:23;;;;;;;16.48;6.75;;;;;;;;;;1039733;28;20022;-79
2023/02/12 02:49:56;;;;;;;16.35;6.95;;;;;;;;;;1042595;28;20056;-79
2023/02/12 02:50:28;;;;;;;15.15;7.90;;;;;;;;;;1041020;28;20492;-79
2023/02/12 02:51:05;;;;;;;15.60;8.07;;;;;;;;;;1039912;28;20032;-79
2023/02/12 02:51:38;;;;;;;14.57;7.22;;;;;;;;;;1037573;28;20084;-79
2023/02/12 02:52:11;;;;;;;17.35;8.70;;;;;;;;;;1038690;28;20120;-79
2023/02/12 02:52:51;;;;;;;6.50;4.30;;;;;;;;;;1036586;28;20022;-79
2023/02/12 02:53:25;;;;;;;22.45;6.63;;;;;;;;;;1037761;28;20026;-79
2023/02/12 02:54:08;;;;;;;28.15;6.57;;;;;;;;;;1037866;28;20468;-79
2023/02/12 02:54:43;;;;;;;15.77;8.57;;;;;;;;;;1042126;28;20025;-79
2023/02/12 02:55:15;;;;;;;13.50;6.22;;;;;;;;;;1034312;28;20053;-79
2023/02/12 02:55:48;;;;;;;22.55;7.97;;;;;;;;;;1035877;28;20029;-79
2023/02/12 02:56:20;;;;;;;19.23;7.45;;;;;;;;;;1037830;28;20029;-78
2023/02/12 02:56:54;;;;;;;15.20;8.85;;;;;;;;;;1037648;28;20049;-79
2023/02/12 02:57:31;;;;;;;15.45;7.18;;;;;;;;;;1037845;28;20496;-79
2023/02/12 02:58:08;;;;;;;17.83;11.13;;;;;;;;;;1038200;28;20493;-79
2023/02/12 02:58:41;;;;;;;17.55;8.50;;;;;;;;;;1040087;28;20041;-79
2023/02/12 02:59:15;;;;;;;17.67;8.07;;;;;;;;;;1041007;28;20042;-79
2023/02/12 02:59:51;;;;;;;12.90;8.68;;;;;;;;;;1042772;28;20024;-79
2023/02/12 03:00:34;;;;;;;10.45;7.03;;;;;;;;;;1039654;28;20032;-79
2023/02/12 03:01:08;;;;;;;22.15;9.80;;;;;;;;;;1038939;28;20029;-79
2023/02/12 03:01:42;;;;;;;19.27;9.77;;;;;;;;;;1039278;28;20412;-79
2023/02/12 03:02:16;;;;;;;21.02;9.35;;;;;;;;;;1039489;28;20085;-79
2023/02/12 03:02:58;;;;;;;36.78;12.65;;;;;;;;;;1037522;28;20026;-79
2023/02/12 03:03:32;;;;;;;38.80;16.15;;;;;;;;;;1038230;28;20026;-78
2023/02/12 03:04:05;;;;;;;37.20;15.18;;;;;;;;;;1038213;28;20496;-79
2023/02/12 03:04:41;;;;;;;32.53;14.15;;;;;;;;;;1041821;28;20057;-79
2023/02/12 03:05:30;;;;;;;32.28;14.63;;;;;;;;;;1041285;28;20025;-79
2023/02/12 03:06:12;;;;;;;40.05;14.05;;;;;;;;;;1040532;28;20032;-79
2023/02/12 03:06:49;;;;;;;17.90;10.25;;;;;;;;;;1037335;28;20025;-79
2023/02/12 03:07:24;;;;;;;21.70;13.88;;;;;;;;;;1038651;28;20029;-79
2023/02/12 03:07:59;;;;;;;28.65;15.57;;;;;;;;;;1036740;28;20030;-79
2023/02/12 03:08:33;;;;;;;35.00;13.82;;;;;;;;;;1040152;28;20029;-79
2023/02/12 03:09:08;;;;;;;28.75;11.10;;;;;;;;;;1038353;28;20501;-79
2023/02/12 03:09:44;;;;;;;28.65;11.57;;;;;;;;;;1037759;28;20022;-79
2023/02/12 03:10:19;;;;;;;22.55;12.15;;;;;;;;;;1037263;28;20109;-79
2023/02/12 03:10:58;;;;;;;27.45;11.15;;;;;;;;;;1040604;28;20114;-79
2023/02/12 03:11:30;;;;;;;19.80;10.88;;;;;;;;;;1037929;28;20119;-79
2023/02/12 03:12:04;;;;;;;23.75;7.88;;;;;;;;;;1036734;28;20040;-78
2023/02/12 03:12:47;;;;;;;20.05;10.55;;;;;;;;;;1033161;28;20018;-79
2023/02/12 03:13:21;;;;;;;14.80;8.82;;;;;;;;;;1035816;28;20025;-79
2023/02/12 03:13:56;;;;;;;21.38;8.38;;;;;;;;;;1039100;28;20516;-79
2023/02/12 03:14:32;;;;;;;9.15;6.47;;;;;;;;;;1039245;28;20481;-79
2023/02/12 03:15:07;;;;;;;21.15;6.05;;;;;;;;;;1038452;28;20037;-80
2023/02/12 03:15:41;;;;;;;7.13;6.15;;;;;;;;;;1037590;28;20080;-80
2023/02/12 03:16:20;;;;;;;10.07;4.15;;;;;;;;;;1039272;28;20155;-79